Map

Track Data

SID SEASON NUMBER BASIN SUBBASIN NAME ISO_TIME NATURE LAT LON WMO_WIND WMO_PRES WMO_AGENCY TRACK_TYPE DIST2LAND LANDFALL IFLAG USA_AGENCY USA_ATCF_ID USA_LAT USA_LON USA_RECORD USA_STATUS USA_WIND USA_PRES USA_SSHS USA_R34_NE USA_R34_SE USA_R34_SW USA_R34_NW USA_R50_NE USA_R50_SE USA_R50_SW USA_R50_NW USA_R64_NE USA_R64_SE USA_R64_SW USA_R64_NW USA_POCI USA_ROCI USA_RMW USA_EYE TOKYO_LAT TOKYO_LON TOKYO_GRADE TOKYO_WIND TOKYO_PRES TOKYO_R50_DIR TOKYO_R50_LONG TOKYO_R50_SHORT TOKYO_R30_DIR TOKYO_R30_LONG TOKYO_R30_SHORT TOKYO_LAND CMA_LAT CMA_LON CMA_CAT CMA_WIND CMA_PRES HKO_LAT HKO_LON HKO_CAT HKO_WIND HKO_PRES NEWDELHI_LAT NEWDELHI_LON NEWDELHI_GRADE NEWDELHI_WIND NEWDELHI_PRES NEWDELHI_CI NEWDELHI_DP NEWDELHI_POCI REUNION_LAT REUNION_LON REUNION_TYPE REUNION_WIND REUNION_PRES REUNION_TNUM REUNION_CI REUNION_RMW REUNION_R34_NE REUNION_R34_SE REUNION_R34_SW REUNION_R34_NW REUNION_R50_NE REUNION_R50_SE REUNION_R50_SW REUNION_R50_NW REUNION_R64_NE REUNION_R64_SE REUNION_R64_SW REUNION_R64_NW BOM_LAT BOM_LON BOM_TYPE BOM_WIND BOM_PRES BOM_TNUM BOM_CI BOM_RMW BOM_R34_NE BOM_R34_SE BOM_R34_SW BOM_R34_NW BOM_R50_NE BOM_R50_SE BOM_R50_SW BOM_R50_NW BOM_R64_NE BOM_R64_SE BOM_R64_SW BOM_R64_NW BOM_ROCI BOM_POCI BOM_EYE BOM_POS_METHOD BOM_PRES_METHOD NADI_LAT NADI_LON NADI_CAT NADI_WIND NADI_PRES WELLINGTON_LAT WELLINGTON_LON WELLINGTON_WIND WELLINGTON_PRES DS824_LAT DS824_LON DS824_STAGE DS824_WIND DS824_PRES TD9636_LAT TD9636_LON TD9636_STAGE TD9636_WIND TD9636_PRES TD9635_LAT TD9635_LON TD9635_WIND TD9635_PRES TD9635_ROCI NEUMANN_LAT NEUMANN_LON NEUMANN_CLASS NEUMANN_WIND NEUMANN_PRES MLC_LAT MLC_LON MLC_CLASS MLC_WIND MLC_PRES USA_GUST BOM_GUST BOM_GUST_PER REUNION_GUST REUNION_GUST_PER USA_SEAHGT USA_SEARAD_NE USA_SEARAD_SE USA_SEARAD_SW USA_SEARAD_NW STORM_SPEED STORM_DIR
1987340S07095 1988 100 SI WA ARINY 1987-12-05 18:00:00 TS -7.10000 95.2000 main 731 731 O_________O_O_ jtwc_sh SH031988 -7.10000 95.2000 20 -1 -7.10000 95.2000 1 20 -7.10000 95.2000 TC 20 3 193
1987340S07095 1988 100 SI WA ARINY 1987-12-05 21:00:00 TS -7.25869 95.1659 main 749 749 P_________P_P_ SH031988 -7.25750 95.1675 20 -1 -7.26109 95.1628 1 20 -7.25750 95.1675 TC 20 3 197
1987340S07095 1988 100 SI WA ARINY 1987-12-06 00:00:00 TS -7.40000 95.1000 main 765 765 O_________O_O_ jtwc_sh SH031988 -7.40000 95.1000 20 -1 -7.40000 95.1000 1 20 -7.40000 95.1000 TC 20 3 216
1987340S07095 1988 100 SI WA ARINY 1987-12-06 03:00:00 TS -7.51032 94.9787 main 780 780 P_________P_P_ SH031988 -7.51500 94.9725 20 -1 -7.50096 94.9910 1 20 -7.51500 94.9725 TC 20 3 236
1987340S07095 1988 100 SI WA ARINY 1987-12-06 06:00:00 TS -7.59127 94.8117 main 802 802 O_________P_O_ jtwc_sh SH031988 -7.60000 94.8000 20 -1 -7.57380 94.8351 1 20 -7.60000 94.8000 TC 20 4 248
1987340S07095 1988 100 SI WA ARINY 1987-12-06 09:00:00 TS -7.64990 94.6272 main 815 815 P_________P_P_ SH031988 -7.65747 94.6225 20 -1 -7.63474 94.6367 1 20 -7.65747 94.6225 TC 20 4 255
1987340S07095 1988 100 SI WA ARINY 1987-12-06 12:00:00 TS -7.70000 94.4000 main 837 837 O_________O_O_ jtwc_sh SH031988 -7.70000 94.4000 20 -1 -7.70000 94.4000 1 20 -7.70000 94.4000 TC 20 5 259
1987340S07095 1988 100 SI WA ARINY 1987-12-06 15:00:00 TS -7.75163 94.1098 main 866 866 P_________P_P_ SH031988 -7.73501 94.1150 20 -1 -7.78487 94.0994 1 20 -7.73501 94.1150 TC 20 6 258
1987340S07095 1988 100 SI WA ARINY 1987-12-06 18:00:00 TS -7.82592 93.7900 main 887 887 O_________P_O_ jtwc_sh SH031988 -7.80000 93.8000 20 -1 -7.87777 93.7701 1 20 -7.80000 93.8000 TC 20 7 253
1987340S07095 1988 100 SI WA ARINY 1987-12-06 21:00:00 TS -7.94558 93.4802 main 917 917 P_________P_P_ SH031988 -7.92749 93.4925 20 -1 -7.98175 93.4557 1 20 -7.92749 93.4925 TC 20 6 245
1987340S07095 1988 100 SI WA ARINY 1987-12-07 00:00:00 TS -8.10000 93.2000 main 955 955 O_________O_O_ jtwc_sh SH031988 -8.10000 93.2000 20 -1 -8.10000 93.2000 1 20 -8.10000 93.2000 TC 20 6 238
1987340S07095 1988 100 SI WA ARINY 1987-12-07 03:00:00 TS -8.28351 92.9387 main 994 994 P_________P_P_ SH031988 -8.30752 92.8901 20 -1 -8.23549 93.0359 1 21 -8.30752 92.8901 TC 20 6 229
1987340S07095 1988 100 SI WA ARINY 1987-12-07 06:00:00 TS -8.46161 92.7792 main 1018 1018 O_________P_O_ jtwc_sh SH031988 -8.50000 92.7000 20 -1 -8.38484 92.9375 1 22 -8.50000 92.7000 TC 20 3 205
1987340S07095 1988 100 SI WA ARINY 1987-12-07 09:00:00 TS -8.59058 92.7968 main 1026 1026 P_________P_P_ SH031988 -8.61499 92.7475 22 -1 -8.54178 92.8953 1 23 -8.61499 92.7475 TC 22 3 154
1987340S07095 1988 100 SI WA ARINY 1987-12-07 12:00:00 TS -8.70000 92.9000 main 1028 1020 O_________O_O_ jtwc_sh SH031988 -8.70000 92.9000 25 -1 -8.70000 92.9000 1 25 -8.70000 92.9000 TC 25 3 136
1987340S07095 1988 100 SI WA ARINY 1987-12-07 15:00:00 TS -8.79989 93.0025 main 1029 1029 P_________P_P_ SH031988 -8.78500 93.0075 25 -1 -8.82966 92.9925 1 25 -8.78500 93.0075 TC 25 3 138
1987340S07095 1988 100 SI WA ARINY 1987-12-07 18:00:00 TS -8.92081 93.1057 main 1031 1031 O_________P_O_ jtwc_sh SH031988 -8.90000 93.1000 25 -1 -8.96242 93.1170 1 25 -8.90000 93.1000 TC 25 4 144
1987340S07095 1988 100 SI WA ARINY 1987-12-07 21:00:00 TS -9.08963 93.2093 main 1042 1042 P_________P_P_ SH031988 -9.07746 93.2099 25 -1 -9.11396 93.2080 1 25 -9.07746 93.2099 TC 25 4 165
1987340S07095 1988 100 SI WA ARINY 1987-12-08 00:00:00 TS -9.30000 93.2000 main 1059 1059 O_________O_O_ jtwc_sh SH031988 -9.30000 93.2000 25 -1 -9.30000 93.2000 1 25 -9.30000 93.2000 TC 25 5 207
1987340S07095 1988 100 SI WA ARINY 1987-12-08 03:00:00 TS -9.53499 92.9831 main 1091 1091 P_________P_P_ SH031988 -9.53505 92.9525 25 -1 -9.53487 93.0443 1 25 -9.53505 92.9525 TC 25 7 227
1987340S07095 1988 100 SI WA ARINY 1987-12-08 06:00:00 TS -9.80159 92.6599 main 1137 1137 O_________P_O_ jtwc_sh SH031988 -9.80000 92.6000 25 -1 -9.80477 92.7798 1 25 -9.80000 92.6000 TC 25 8 228
1987340S07095 1988 100 SI WA ARINY 1987-12-08 09:00:00 TS -10.0790 92.3617 main 1184 1184 P_________P_P_ SH031988 -10.0699 92.3298 25 -1 -10.0973 92.4254 1 25 -10.0699 92.3298 TC 25 9 227
1987340S07095 1988 100 SI WA ARINY 1987-12-08 12:00:00 TS -10.4000 92.0000 main 1237 1237 O_________O_O_ jtwc_sh SH031988 -10.4000 92.0000 25 -1 -10.4000 92.0000 1 25 -10.4000 92.0000 TC 25 11 228
1987340S07095 1988 100 SI WA ARINY 1987-12-08 15:00:00 TS -10.8222 91.5291 main 1307 1307 P_________P_P_ SH031988 -10.8725 91.5378 25 -1 -10.7217 91.5118 1 26 -10.8725 91.5378 TC 25 13 231
1987340S07095 1988 100 SI WA ARINY 1987-12-08 18:00:00 TS -11.2152 90.9886 main 1376 1376 O_________P_O_ jtwc_sh SH031988 -11.3000 91.0000 25 -1 -11.0457 90.9658 1 27 -11.3000 91.0000 TC 25 13 240
1987340S07095 1988 100 SI WA ARINY 1987-12-08 21:00:00 TS -11.4556 90.4272 main 1444 1444 P_________P_P_ SH031988 -11.5100 90.4348 27 -1 -11.3468 90.4118 1 28 -11.5100 90.4348 TC 27 11 250
1987340S07095 1988 100 SI MM ARINY 1987-12-09 00:00:00 TS -11.6000 89.9000 main 1489 1489 O_________O_O_ jtwc_sh SH031988 -11.6000 89.9000 30 -1 -11.6000 89.9000 1 30 -11.6000 89.9000 TC 30 10 256
1987340S07095 1988 100 SI MM ARINY 1987-12-09 03:00:00 TS -11.6865 89.4773 main 1527 1527 P_________P_P_ SH031988 -11.6424 89.4623 30 -1 -11.7747 89.5072 1 30 -11.6424 89.4623 TC 30 8 258
1987340S07095 1988 100 SI MM ARINY 1987-12-09 06:00:00 TS -11.7672 89.1206 main 1565 1565 O_________P_O_ jtwc_sh SH031988 -11.7000 89.1000 30 -1 -11.9017 89.1617 1 30 -11.7000 89.1000 TC 30 7 250
1987340S07095 1988 100 SI MM ARINY 1987-12-09 09:00:00 TS -11.9292 88.8019 main 1596 1596 P_________P_P_ SH031988 -11.8924 88.7851 30 -1 -12.0029 88.8354 1 30 -11.8924 88.7851 TC 30 7 241
1987340S07095 1988 100 SI MM ARINY 1987-12-09 12:00:00 TS -12.1000 88.5000 main 1635 1635 O_________O_O_ jtwc_sh SH031988 -12.1000 88.5000 30 -1 -12.1000 88.5000 1 30 -12.1000 88.5000 TC 30 7 245
1987340S07095 1988 100 SI MM ARINY 1987-12-09 15:00:00 TS -12.2037 88.1926 main 1666 1666 P_________P_P_ SH031988 -12.2073 88.2299 32 -1 -12.1965 88.1180 1 31 -12.2073 88.2299 TC 32 7 253
1987340S07095 1988 100 SI MM ARINY 1987-12-09 18:00:00 TS -12.2991 87.8406 main 1705 1705 O_________P_O_ jtwc_sh SH031988 -12.3000 87.9000 35 0 -12.2973 87.7218 1 32 -12.3000 87.9000 TC 35 8 254
1987340S07095 1988 100 SI MM ARINY 1987-12-09 21:00:00 TS -12.4265 87.3915 main 1745 1745 P_________P_P_ SH031988 -12.4276 87.4299 35 0 -12.4245 87.3148 1 33 -12.4276 87.4299 TC 35 10 252
1987340S07095 1988 100 SI MM ARINY 1987-12-10 00:00:00 TS -12.6000 86.9000 main 1800 1800 O_________O_O_ jtwc_sh SH031988 -12.6000 86.9000 35 0 -12.6000 86.9000 2 35 -12.6000 86.9000 TC 35 11 248
1987340S07095 1988 100 SI MM ARINY 1987-12-10 03:00:00 TS -12.8232 86.3976 main 1855 1855 P_________P_P_ SH031988 -12.8200 86.3775 37 0 -12.8297 86.4379 2 37 -12.8200 86.3775 TC 37 10 243
1987340S07095 1988 100 SI MM ARINY 1987-12-10 06:00:00 TS -13.0494 86.0002 main 1903 1903 O____O____P_O_ jtwc_sh SH031988 -13.1000 85.9000 40 0 -12.4000 86.9000 3 52 976 4.00000 4.00000 -13.1105 85.9756 2 40 -13.1000 85.9000 TC 40 9 236
1987340S07095 1988 100 SI MM ARINY 1987-12-10 09:00:00 TS -13.3382 85.6052 main 1958 1958 P____P____P_P_ SH031988 -13.4274 85.5050 42 0 -12.7857 86.1157 3 57 971 -13.4360 85.5504 2 42 -13.4274 85.5050 TC 42 9 230
1987340S07095 1988 100 SI MM ARINY 1987-12-10 12:00:00 TS -13.6600 85.2600 main 2011 2011 O____O____O_O_ jtwc_sh SH031988 -13.8000 85.2000 45 0 -13.1000 85.5000 3 62 966 4.50000 4.50000 -13.8000 85.2000 2 45 -13.8000 85.2000 TC 45 9 222
1987340S07095 1988 100 SI MM ARINY 1987-12-10 15:00:00 TS -13.9735 85.0126 main 2058 2058 P____P____P_P_ SH031988 -14.1849 84.9624 47 0 -13.3072 85.1672 3 62 966 -14.2171 84.9585 2 47 -14.1849 84.9624 TC 47 8 210
1987340S07095 1988 100 SI MM ARINY 1987-12-10 18:00:00 TS -14.3411 84.8487 main 2096 2096 O____O____P_O_ jtwc_sh SH031988 -14.6000 84.8000 50 0 -13.5000 85.0000 3 62 966 4.50000 4.50000 -14.6645 84.7946 2 50 -14.6000 84.8000 TC 50 8 200
1987340S07095 1988 100 SI MM ARINY 1987-12-10 21:00:00 TS -14.7343 84.7295 main 2134 2134 P____P____P_P_ SH031988 -15.0650 84.6849 52 0 -13.7024 84.8645 3 62 966 -15.1047 84.6835 2 52 -15.0650 84.6849 TC 52 8 195
1987340S07095 1988 100 SI MM ARINY 1987-12-11 00:00:00 TS -15.1500 84.6250 main 2172 2179 O____O____O_O_ jtwc_sh SH031988 -15.5000 84.6000 55 0 -14.1000 84.7000 3 62 966 4.50000 4.50000 -15.5000 84.6000 2 55 -15.5000 84.6000 TC 55 9 197
1987340S07095 1988 100 SI MM ARINY 1987-12-11 03:00:00 TS -15.6150 84.4582 main 2218 2218 P____P____P_P_ SH031988 -15.8375 84.4925 55 0 -14.9727 84.3286 3 62 966 -15.8124 84.5193 2 55 -15.8375 84.4925 TC 55 9 199
1987340S07095 1988 100 SI MM ARINY 1987-12-11 06:00:00 TS -16.0187 84.3142 main 2264 2264 O____O____P_O_ jtwc_sh SH031988 -16.1000 84.4000 55 0 -15.8000 84.0000 3 62 966 4.50000 4.50000 -16.0748 84.4570 2 55 -16.1000 84.4000 TC 55 7 196
1987340S07095 1988 100 SI MM ARINY 1987-12-11 09:00:00 TS -16.2424 84.2633 main 2280 2280 P____P____P_P_ SH031988 -16.3225 84.3574 55 0 -16.0249 83.9470 3 53 975 -16.2998 84.3912 2 55 -16.3225 84.3574 TC 55 4 193
1987340S07095 1988 100 SI MM ARINY 1987-12-11 12:00:00 TS -16.4000 84.2250 main 2303 2303 O____O____O_O_ jtwc_sh SH031988 -16.5000 84.3000 55 0 -16.1000 84.0000 3 44 984 3.50000 3.50000 -16.5000 84.3000 2 55 -16.5000 84.3000 TC 55 4 200
1987340S07095 1988 100 SI MM ARINY 1987-12-11 15:00:00 TS -16.6076 84.1285 main 2326 2326 P____P____P_P_ SH031988 -16.6500 84.1725 55 0 -16.4500 84.0075 3 44 984 -16.6803 84.1617 2 55 -16.6500 84.1725 TC 55 5 208
1987340S07095 1988 100 SI MM ARINY 1987-12-11 18:00:00 TS -16.8106 83.9987 main 2349 2349 O____O____P_O_ jtwc_sh SH031988 -16.8000 84.0000 55 0 -16.8000 84.0000 3 44 984 3.50000 3.50000 -16.8425 83.9947 2 55 -16.8000 84.0000 TC 55 5 216
1987340S07095 1988 100 SI MM ARINY 1987-12-11 21:00:00 TS -16.9690 83.8481 main 2380 2380 P____P____P_P_ SH031988 -16.9775 83.8149 55 0 -16.9125 83.9574 3 53 975 -17.0084 83.8053 2 55 -16.9775 83.8149 TC 55 5 220
1987340S07095 1988 100 SI MM ARINY 1987-12-12 00:00:00 TS -17.1750 83.6750 main 2403 2403 O____O____O_O_ jtwc_sh SH031988 -17.2000 83.6000 55 0 -17.1000 83.9000 3 62 966 4.50000 4.50000 -17.2000 83.6000 2 55 -17.2000 83.6000 TC 55 7 210
1987340S07095 1988 100 SI MM ARINY 1987-12-12 03:00:00 TS -17.5469 83.4944 main 2442 2442 P____P____P_P_ SH031988 -17.4925 83.3501 55 0 -17.7074 83.8874 3 62 966 -17.4950 83.3899 2 55 -17.4925 83.3501 TC 55 8 206
1987340S07095 1988 100 SI MM ARINY 1987-12-12 06:00:00 TS -17.9275 83.2914 main 2489 2489 O____O____P_O_ jtwc_sh SH031988 -17.8000 83.1000 55 0 -18.3000 83.8000 3 62 966 4.50000 4.50000 -17.8100 83.1657 2 55 -17.8000 83.1000 TC 55 8 212
1987340S07095 1988 100 SI MM ARINY 1987-12-12 09:00:00 TS -18.1919 83.0659 main 2527 2527 P____P____P_P_ SH031988 -18.0800 82.8925 55 0 -18.5125 83.5451 3 53 975 -18.0950 82.9337 2 55 -18.0800 82.8925 TC 55 6 226
1987340S07095 1988 100 SI MM ARINY 1987-12-12 12:00:00 TS -18.3500 82.8250 main 2558 2558 O____O____O_O_ jtwc_sh SH031988 -18.3000 82.7000 55 0 -18.5000 83.2000 3 44 984 3.50000 3.50000 -18.3000 82.7000 2 55 -18.3000 82.7000 TC 55 5 243
1987340S07095 1988 100 SI MM ARINY 1987-12-12 15:00:00 TS -18.4242 82.5881 main 2581 2581 P____P____P_P_ SH031988 -18.4599 82.5075 55 0 -18.3876 82.8423 3 44 984 -18.3894 82.4951 2 55 -18.4599 82.5075 TC 55 5 264
1987340S07095 1988 100 SI MM ARINY 1987-12-12 18:00:00 TS -18.3980 82.3469 main 2576 2557 O____O____P_O_ jtwc_sh SH031988 -18.5000 82.3000 55 0 -18.2000 82.5000 3 44 984 3.50000 3.50000 -18.3921 82.2874 2 55 -18.5000 82.3000 TC 55 5 287
1987340S07095 1988 100 SI MM ARINY 1987-12-12 21:00:00 TS -18.2890 82.1102 main 2557 2538 P____P____P_P_ SH031988 -18.3950 82.0649 55 0 -18.0423 82.2501 3 44 984 -18.3237 82.0610 2 55 -18.3950 82.0649 TC 55 5 300
1987340S07095 1988 100 SI MM ARINY 1987-12-13 00:00:00 TS -18.1250 81.8500 main 2540 2511 O____O____O_O_ jtwc_sh SH031988 -18.2000 81.8000 55 0 -17.9000 82.0000 3 44 984 3.50000 3.50000 -18.2000 81.8000 2 55 -18.2000 81.8000 TC 55 6 302
1987340S07095 1988 100 SI MM ARINY 1987-12-13 03:00:00 TS -17.9629 81.5620 main 2511 2473 P____P____P_P_ SH031988 -18.0074 81.5226 55 0 -17.8075 81.6727 3 44 984 -18.0294 81.5302 2 53 -18.0074 81.5226 TC 55 7 300
1987340S07095 1988 100 SI MM ARINY 1987-12-13 06:00:00 TS -17.7785 81.2298 main 2473 2446 O____O____P_O_ jtwc_sh SH031988 -17.8000 81.2000 55 0 -17.7000 81.3000 3 44 984 3.50000 3.50000 -17.8140 81.2194 2 52 -17.8000 81.2000 TC 55 8 301
1987340S07095 1988 100 SI MM ARINY 1987-12-13 09:00:00 TS -17.5690 80.8672 main 2446 2408 P____P____P_P_ SH031988 -17.5923 80.8375 52 0 -17.4997 80.9449 3 40 987 -17.5916 80.8489 2 51 -17.5923 80.8375 TC 52 9 298
1987340S07095 1988 100 SI MM ARINY 1987-12-13 12:00:00 TS -17.3750 80.4250 main 2398 2350 O____O____O_O_ jtwc_sh SH031988 -17.4000 80.4000 50 0 -17.3000 80.5000 3 36 991 3.00000 3.00000 -17.4000 80.4000 2 50 -17.4000 80.4000 TC 50 10 290
1987340S07095 1988 100 SI MM ARINY 1987-12-13 15:00:00 TS -17.2226 79.8810 main 2350 2291 P____P____P_P_ SH031988 -17.2198 79.8949 47 0 -17.1777 79.8800 3 32 994 -17.2732 79.8540 2 47 -17.2198 79.8949 TC 47 11 283
1987340S07095 1988 100 SI MM ARINY 1987-12-13 18:00:00 TS -17.1208 79.2581 28 997 reunion main 2291 2218 O____O____P_O_ jtwc_sh SH031988 -17.1000 79.3000 45 0 -17.1000 79.2000 2 28 997 2.50000 2.50000 -17.1830 79.2323 2 45 -17.1000 79.3000 TC 45 12 277
1987340S07095 1988 100 SI MM ARINY 1987-12-13 21:00:00 TS -17.0752 78.6018 main 2218 2156 P____P____P_P_ SH031988 -17.0775 78.6227 42 0 -17.0198 78.5924 2 26 998 -17.1262 78.5695 2 42 -17.0775 78.6227 TC 42 13 272
1987340S07095 1988 100 SI MM ARINY 1987-12-14 00:00:00 TS -17.0750 77.9250 24 1000 reunion main 2145 2083 O____O____O_O_ jtwc_sh SH031988 -17.1000 77.9000 40 0 -17.0000 78.0000 2 24 1000 2.00000 2.00000 -17.1000 77.9000 2 40 -17.1000 77.9000 TC 40 13 269
1987340S07095 1988 100 SI MM ARINY 1987-12-14 03:00:00 TS -17.0934 77.2457 main 2073 2011 P____P____P_P_ SH031988 -17.0925 77.1774 37 0 -17.0924 77.3928 2 24 1000 -17.0964 77.2350 2 37 -17.0925 77.1774 TC 37 13 268
1987340S07095 1988 100 SI MM ARINY 1987-12-14 06:00:00 TS -17.1301 76.5939 24 1000 reunion main 2011 1946 O____O____P_O_ jtwc_sh SH031988 -17.1000 76.5000 35 0 -17.2000 76.8000 2 24 1000 2.00000 2.00000 -17.1204 76.5757 2 35 -17.1000 76.5000 TC 35 12 267
1987340S07095 1988 100 SI MM ARINY 1987-12-14 09:00:00 TS -17.1646 75.9996 main 1946 1894 P____P____P_P_ SH031988 -17.1498 75.9126 32 -1 -17.2000 76.2198 2 24 1000 -17.1591 75.9536 2 32 -17.1498 75.9126 TC 32 11 266
1987340S07095 1988 100 SI MM ARINY 1987-12-14 12:00:00 TS -17.2000 75.4750 24 1000 reunion main 1894 1843 O____O____O_O_ jtwc_sh SH031988 -17.2000 75.4000 30 -1 -17.2000 75.7000 2 24 1000 2.00000 2.00000 -17.2000 75.4000 1 30 -17.2000 75.4000 TC 30 9 267
1987340S07095 1988 100 SI MM ARINY 1987-12-14 15:00:00 TS -17.2192 75.0128 main 1843 1809 P____P____P_P_ SH031988 -17.1999 74.9124 30 -1 -17.2773 75.2775 2 24 1000 -17.1996 74.9487 1 30 -17.1999 74.9124 TC 30 8 266
1987340S07095 1988 100 SI MM ARINY 1987-12-14 18:00:00 TS -17.2582 74.6334 24 1000 reunion main 1799 1768 O____O____P_O_ jtwc_sh SH031988 -17.2000 74.5000 30 -1 -17.4000 74.9000 2 24 1000 2.00000 2.00000 -17.2038 74.5670 1 30 -17.2000 74.5000 TC 30 7 260
1987340S07095 1988 100 SI MM ARINY 1987-12-14 21:00:00 TS -17.3395 74.3006 main 1768 1732 P____P____P_P_ SH031988 -17.2375 74.1751 27 -1 -17.5499 74.5000 2 24 1000 -17.2311 74.2268 1 30 -17.2375 74.1751 TC 27 7 252
1987340S07095 1988 100 SI MM ARINY 1987-12-15 00:00:00 TS -17.4600 73.9800 24 1000 reunion main 1732 1688 O____O____O_O_ jtwc_sh SH031988 -17.3000 73.9000 25 -1 -17.7000 74.1000 2 24 1000 9.90000 -17.3000 73.9000 1 30 -17.3000 73.9000 TC 25 7 247
1987340S07095 1988 100 SI MM ARINY 1987-12-15 03:00:00 TS -17.6296 73.5962 main 1688 1641 _____P____P___ SH031988 -1 -17.8150 73.6775 2 26 998 -17.4441 73.5149 1 28 TC 8 247
1987340S07095 1988 100 SI MM ARINY 1987-12-15 06:00:00 TS -17.7638 73.2204 28 997 reunion main 1641 1608 _____O____P___ -1 -17.9000 73.3000 2 28 997 2.50000 2.50000 -17.6276 73.1407 1 27 7 248
1987340S07095 1988 100 SI MM ARINY 1987-12-15 09:00:00 TS -17.8898 72.9080 main 1608 1585 _____P____P___ -1 -17.9574 73.0199 2 28 997 -17.8223 72.7961 1 26 6 246
1987340S07095 1988 100 SI MM ARINY 1987-12-15 12:00:00 TS -18.0000 72.6500 28 997 reunion main 1585 1552 _____O____O___ -1 -18.0000 72.8000 2 28 997 2.50000 2.50000 -18.0000 72.5000 1 25 5 246
1987340S07095 1988 100 SI MM ARINY 1987-12-15 15:00:00 TS -18.0946 72.4253 main 1552 1539 _____P____P___ -1 -18.0500 72.5850 2 28 997 -18.1392 72.2656 1 23 4 246
1987340S07095 1988 100 SI MM ARINY 1987-12-15 18:00:00 TS -18.1621 72.2637 28 997 reunion main 1539 1518 _____O____P___ -1 -18.1000 72.4000 2 28 997 2.50000 2.50000 -18.2448 72.0821 1 22 3 246
1987340S07095 1988 100 SI MM ARINY 1987-12-15 21:00:00 TS -18.2143 72.1392 main 1518 1508 _____P____P___ -1 -18.1575 72.2425 2 26 998 -18.3280 71.9325 1 21 2 250
1987340S07095 1988 100 SI MM ARINY 1987-12-16 00:00:00 TS -18.2400 72.0400 24 1000 reunion main 1508 1508 _____O____O___ -1 -18.2000 72.1000 2 24 1000 2.00000 2.00000 -18.4000 71.8000 1 20 1 289
1987340S07095 1988 100 SI MM ARINY 1987-12-16 03:00:00 TS -18.1698 72.0022 main 1508 1487 _____P________ -1 -18.1698 72.0022 2 22 1001 1 2 280
1987340S07095 1988 100 SI MM ARINY 1987-12-16 06:00:00 TS -18.2000 71.8000 20 1003 reunion main 1487 1442 _____O________ -1 -18.2000 71.8000 6 20 1003 1.50000 1.50000 1 6 249
1987340S07095 1988 100 SI MM ARINY 1987-12-16 09:00:00 TS -18.3981 71.3707 main 1442 1373 _____P________ -1 -18.3981 71.3707 6 28 1 11 242
1987340S07095 1988 100 SI MM ARINY 1987-12-16 12:00:00 TS -18.7000 70.8000 36 reunion main 1373 _____O________ -1 -18.7000 70.8000 6 36 9.90000 12 241

About IBTrACS Database

This database is a web-friendly format of International Best Track Archive for Climate Stewardship (IBTrACS), a global best track data archive curated by NOAA dating back to 1842.

Updated: 2021-10-21